sensor_id;sensor_type;location;lat;lon;timestamp;P1;durP1;ratioP1;P2;durP2;ratioP2
1010;SDS011;494;48.744;10.106;2022-09-30T00:01:53;20.93;;;7.63;;
1010;SDS011;494;48.744;10.106;2022-09-30T00:04:22;18.97;;;7.77;;
1010;SDS011;494;48.744;10.106;2022-09-30T00:06:53;18.00;;;7.23;;
1010;SDS011;494;48.744;10.106;2022-09-30T00:09:22;16.93;;;7.00;;
1010;SDS011;494;48.744;10.106;2022-09-30T00:11:51;14.93;;;6.50;;
1010;SDS011;494;48.744;10.106;2022-09-30T00:14:20;15.97;;;7.30;;
1010;SDS011;494;48.744;10.106;2022-09-30T00:16:50;18.53;;;7.53;;
1010;SDS011;494;48.744;10.106;2022-09-30T00:19:20;18.63;;;7.60;;
1010;SDS011;494;48.744;10.106;2022-09-30T00:21:48;22.70;;;7.30;;
1010;SDS011;494;48.744;10.106;2022-09-30T00:24:17;19.90;;;7.77;;
1010;SDS011;494;48.744;10.106;2022-09-30T00:26:45;18.93;;;8.30;;
1010;SDS011;494;48.744;10.106;2022-09-30T00:29:14;28.87;;;9.30;;
1010;SDS011;494;48.744;10.106;2022-09-30T00:31:42;19.30;;;8.60;;
1010;SDS011;494;48.744;10.106;2022-09-30T00:34:11;20.30;;;8.03;;
1010;SDS011;494;48.744;10.106;2022-09-30T00:36:41;21.07;;;8.50;;
1010;SDS011;494;48.744;10.106;2022-09-30T00:39:13;21.20;;;9.50;;
1010;SDS011;494;48.744;10.106;2022-09-30T00:41:45;18.57;;;7.97;;
1010;SDS011;494;48.744;10.106;2022-09-30T00:47:30;19.67;;;8.50;;
1010;SDS011;494;48.744;10.106;2022-09-30T00:50:18;21.90;;;7.83;;
1010;SDS011;494;48.744;10.106;2022-09-30T00:52:56;17.30;;;7.27;;
1010;SDS011;494;48.744;10.106;2022-09-30T00:55:37;18.97;;;7.27;;
1010;SDS011;494;48.744;10.106;2022-09-30T00:58:15;17.77;;;7.70;;
1010;SDS011;494;48.744;10.106;2022-09-30T01:00:51;18.43;;;7.70;;
1010;SDS011;494;48.744;10.106;2022-09-30T01:03:20;18.40;;;8.40;;
1010;SDS011;494;48.744;10.106;2022-09-30T01:05:50;18.73;;;7.70;;
1010;SDS011;494;48.744;10.106;2022-09-30T01:08:21;17.03;;;7.40;;
1010;SDS011;494;48.744;10.106;2022-09-30T01:10:51;22.03;;;7.40;;
1010;SDS011;494;48.744;10.106;2022-09-30T01:13:19;19.40;;;7.77;;
1010;SDS011;494;48.744;10.106;2022-09-30T01:15:58;16.30;;;6.50;;
1010;SDS011;494;48.744;10.106;2022-09-30T01:18:55;19.90;;;7.57;;
1010;SDS011;494;48.744;10.106;2022-09-30T01:21:58;36.93;;;9.20;;
1010;SDS011;494;48.744;10.106;2022-09-30T01:24:55;21.63;;;8.30;;
1010;SDS011;494;48.744;10.106;2022-09-30T01:27:50;19.60;;;7.13;;
1010;SDS011;494;48.744;10.106;2022-09-30T01:31:07;16.70;;;7.13;;
1010;SDS011;494;48.744;10.106;2022-09-30T01:33:54;19.47;;;8.03;;
1010;SDS011;494;48.744;10.106;2022-09-30T01:36:36;18.20;;;7.87;;
1010;SDS011;494;48.744;10.106;2022-09-30T01:39:22;16.27;;;6.60;;
1010;SDS011;494;48.744;10.106;2022-09-30T01:42:05;16.93;;;6.97;;
1010;SDS011;494;48.744;10.106;2022-09-30T01:44:44;17.27;;;6.90;;
1010;SDS011;494;48.744;10.106;2022-09-30T01:47:30;20.83;;;7.37;;
1010;SDS011;494;48.744;10.106;2022-09-30T01:50:08;18.67;;;7.60;;
1010;SDS011;494;48.744;10.106;2022-09-30T01:52:46;14.90;;;6.47;;
1010;SDS011;494;48.744;10.106;2022-09-30T01:55:23;16.53;;;7.40;;
1010;SDS011;494;48.744;10.106;2022-09-30T01:58:00;16.30;;;5.40;;
1010;SDS011;494;48.744;10.106;2022-09-30T02:00:36;17.87;;;7.40;;
1010;SDS011;494;48.744;10.106;2022-09-30T02:03:13;16.80;;;6.83;;
1010;SDS011;494;48.744;10.106;2022-09-30T02:05:48;15.77;;;6.80;;
1010;SDS011;494;48.744;10.106;2022-09-30T02:08:24;15.53;;;6.50;;
1010;SDS011;494;48.744;10.106;2022-09-30T02:10:59;15.63;;;6.63;;
1010;SDS011;494;48.744;10.106;2022-09-30T02:13:34;13.57;;;6.20;;
1010;SDS011;494;48.744;10.106;2022-09-30T02:16:12;16.90;;;6.50;;
1010;SDS011;494;48.744;10.106;2022-09-30T02:18:50;14.47;;;6.30;;
1010;SDS011;494;48.744;10.106;2022-09-30T02:21:25;14.80;;;6.10;;
1010;SDS011;494;48.744;10.106;2022-09-30T02:24:01;16.07;;;5.17;;
1010;SDS011;494;48.744;10.106;2022-09-30T02:26:36;12.93;;;5.37;;
1010;SDS011;494;48.744;10.106;2022-09-30T02:29:09;11.90;;;4.80;;
1010;SDS011;494;48.744;10.106;2022-09-30T02:31:45;13.97;;;5.43;;
1010;SDS011;494;48.744;10.106;2022-09-30T02:34:21;12.40;;;4.93;;
1010;SDS011;494;48.744;10.106;2022-09-30T02:36:59;14.53;;;5.40;;
1010;SDS011;494;48.744;10.106;2022-09-30T02:39:37;14.30;;;5.43;;
1010;SDS011;494;48.744;10.106;2022-09-30T02:42:13;12.53;;;5.70;;
1010;SDS011;494;48.744;10.106;2022-09-30T02:44:48;11.60;;;4.97;;
1010;SDS011;494;48.744;10.106;2022-09-30T02:47:21;11.93;;;4.60;;
1010;SDS011;494;48.744;10.106;2022-09-30T02:50:01;11.10;;;4.40;;
1010;SDS011;494;48.744;10.106;2022-09-30T02:52:43;14.73;;;4.57;;
1010;SDS011;494;48.744;10.106;2022-09-30T02:55:29;15.60;;;4.47;;
1010;SDS011;494;48.744;10.106;2022-09-30T02:58:11;10.53;;;4.10;;
1010;SDS011;494;48.744;10.106;2022-09-30T03:00:44;11.00;;;4.20;;
1010;SDS011;494;48.744;10.106;2022-09-30T03:03:14;10.70;;;3.97;;
1010;SDS011;494;48.744;10.106;2022-09-30T03:05:50;12.57;;;5.13;;
1010;SDS011;494;48.744;10.106;2022-09-30T03:08:19;13.10;;;5.23;;
1010;SDS011;494;48.744;10.106;2022-09-30T03:10:49;14.97;;;4.90;;
1010;SDS011;494;48.744;10.106;2022-09-30T03:13:22;13.60;;;5.40;;
1010;SDS011;494;48.744;10.106;2022-09-30T03:16:26;13.63;;;5.47;;
1010;SDS011;494;48.744;10.106;2022-09-30T03:19:13;19.80;;;8.03;;
1010;SDS011;494;48.744;10.106;2022-09-30T03:22:13;26.07;;;11.83;;
1010;SDS011;494;48.744;10.106;2022-09-30T03:28:02;15.43;;;4.87;;
1010;SDS011;494;48.744;10.106;2022-09-30T03:30:42;10.57;;;3.90;;
1010;SDS011;494;48.744;10.106;2022-09-30T03:33:23;10.97;;;4.13;;
1010;SDS011;494;48.744;10.106;2022-09-30T03:36:05;12.37;;;4.10;;
1010;SDS011;494;48.744;10.106;2022-09-30T03:38:45;12.00;;;4.60;;
1010;SDS011;494;48.744;10.106;2022-09-30T03:41:24;11.77;;;4.70;;
1010;SDS011;494;48.744;10.106;2022-09-30T03:44:01;13.43;;;4.20;;
1010;SDS011;494;48.744;10.106;2022-09-30T03:46:37;13.07;;;5.07;;
1010;SDS011;494;48.744;10.106;2022-09-30T03:49:12;12.63;;;4.37;;
1010;SDS011;494;48.744;10.106;2022-09-30T03:51:48;11.97;;;4.90;;
1010;SDS011;494;48.744;10.106;2022-09-30T03:54:18;16.13;;;6.03;;
1010;SDS011;494;48.744;10.106;2022-09-30T03:56:47;11.27;;;4.57;;
1010;SDS011;494;48.744;10.106;2022-09-30T03:59:18;11.67;;;4.63;;
1010;SDS011;494;48.744;10.106;2022-09-30T04:01:51;10.30;;;3.50;;
1010;SDS011;494;48.744;10.106;2022-09-30T04:04:20;11.10;;;4.00;;
1010;SDS011;494;48.744;10.106;2022-09-30T04:06:48;10.67;;;3.30;;
1010;SDS011;494;48.744;10.106;2022-09-30T04:09:18;11.60;;;4.30;;
1010;SDS011;494;48.744;10.106;2022-09-30T04:11:47;11.70;;;4.33;;
1010;SDS011;494;48.744;10.106;2022-09-30T04:14:15;13.83;;;4.50;;
1010;SDS011;494;48.744;10.106;2022-09-30T04:16:44;11.40;;;4.37;;
1010;SDS011;494;48.744;10.106;2022-09-30T04:19:19;9.80;;;3.27;;
1010;SDS011;494;48.744;10.106;2022-09-30T04:21:49;9.50;;;3.30;;
1010;SDS011;494;48.744;10.106;2022-09-30T04:24:20;13.53;;;3.70;;
1010;SDS011;494;48.744;10.106;2022-09-30T04:26:51;9.33;;;3.13;;
1010;SDS011;494;48.744;10.106;2022-09-30T04:29:19;9.90;;;3.27;;
1010;SDS011;494;48.744;10.106;2022-09-30T04:31:48;10.87;;;4.00;;
1010;SDS011;494;48.744;10.106;2022-09-30T04:34:17;11.07;;;4.03;;
1010;SDS011;494;48.744;10.106;2022-09-30T04:36:45;10.87;;;3.63;;
1010;SDS011;494;48.744;10.106;2022-09-30T04:39:14;12.03;;;3.23;;
1010;SDS011;494;48.744;10.106;2022-09-30T04:41:44;10.80;;;3.50;;
1010;SDS011;494;48.744;10.106;2022-09-30T04:44:12;10.10;;;3.37;;
1010;SDS011;494;48.744;10.106;2022-09-30T04:46:41;10.20;;;2.93;;
1010;SDS011;494;48.744;10.106;2022-09-30T04:49:09;16.87;;;4.17;;
1010;SDS011;494;48.744;10.106;2022-09-30T04:51:38;13.70;;;4.37;;
1010;SDS011;494;48.744;10.106;2022-09-30T04:54:11;12.30;;;3.33;;
1010;SDS011;494;48.744;10.106;2022-09-30T04:56:41;14.30;;;4.10;;
1010;SDS011;494;48.744;10.106;2022-09-30T04:59:11;21.80;;;4.80;;
1010;SDS011;494;48.744;10.106;2022-09-30T05:01:40;18.33;;;4.10;;
1010;SDS011;494;48.744;10.106;2022-09-30T05:04:10;13.60;;;4.13;;
1010;SDS011;494;48.744;10.106;2022-09-30T05:06:38;16.07;;;3.97;;
1010;SDS011;494;48.744;10.106;2022-09-30T05:09:07;16.10;;;4.30;;
1010;SDS011;494;48.744;10.106;2022-09-30T05:11:35;17.30;;;4.80;;
1010;SDS011;494;48.744;10.106;2022-09-30T05:14:08;13.40;;;4.20;;
1010;SDS011;494;48.744;10.106;2022-09-30T05:16:36;19.63;;;4.63;;
1010;SDS011;494;48.744;10.106;2022-09-30T05:19:05;15.63;;;7.20;;
1010;SDS011;494;48.744;10.106;2022-09-30T05:21:33;21.37;;;5.43;;
1010;SDS011;494;48.744;10.106;2022-09-30T05:24:02;16.53;;;4.20;;
1010;SDS011;494;48.744;10.106;2022-09-30T05:26:30;17.23;;;4.63;;
1010;SDS011;494;48.744;10.106;2022-09-30T05:28:59;13.67;;;4.60;;
1010;SDS011;494;48.744;10.106;2022-09-30T05:31:30;10.67;;;3.67;;
1010;SDS011;494;48.744;10.106;2022-09-30T05:33:59;13.13;;;4.30;;
1010;SDS011;494;48.744;10.106;2022-09-30T05:36:27;14.17;;;5.00;;
1010;SDS011;494;48.744;10.106;2022-09-30T05:38:56;11.93;;;4.07;;
1010;SDS011;494;48.744;10.106;2022-09-30T05:41:24;12.67;;;3.80;;
1010;SDS011;494;48.744;10.106;2022-09-30T05:43:53;15.40;;;3.83;;
1010;SDS011;494;48.744;10.106;2022-09-30T05:46:22;13.30;;;4.17;;
1010;SDS011;494;48.744;10.106;2022-09-30T05:48:52;24.40;;;4.30;;
1010;SDS011;494;48.744;10.106;2022-09-30T05:51:21;12.27;;;4.30;;
1010;SDS011;494;48.744;10.106;2022-09-30T05:53:50;22.67;;;4.43;;
1010;SDS011;494;48.744;10.106;2022-09-30T05:56:18;11.30;;;3.50;;
1010;SDS011;494;48.744;10.106;2022-09-30T05:58:47;12.60;;;3.80;;
1010;SDS011;494;48.744;10.106;2022-09-30T06:01:16;11.57;;;3.97;;
1010;SDS011;494;48.744;10.106;2022-09-30T06:03:45;15.03;;;5.20;;
1010;SDS011;494;48.744;10.106;2022-09-30T06:06:14;11.47;;;4.07;;
1010;SDS011;494;48.744;10.106;2022-09-30T06:08:44;15.23;;;4.53;;
1010;SDS011;494;48.744;10.106;2022-09-30T06:11:13;15.40;;;5.60;;
1010;SDS011;494;48.744;10.106;2022-09-30T06:13:45;22.40;;;6.30;;
1010;SDS011;494;48.744;10.106;2022-09-30T06:16:15;20.27;;;7.10;;
1010;SDS011;494;48.744;10.106;2022-09-30T06:18:45;26.20;;;8.47;;
1010;SDS011;494;48.744;10.106;2022-09-30T06:21:15;39.33;;;8.93;;
1010;SDS011;494;48.744;10.106;2022-09-30T06:23:44;42.53;;;8.23;;
1010;SDS011;494;48.744;10.106;2022-09-30T06:26:13;100.53;;;9.73;;
1010;SDS011;494;48.744;10.106;2022-09-30T06:28:42;52.30;;;6.70;;
1010;SDS011;494;48.744;10.106;2022-09-30T06:31:11;41.63;;;6.70;;
1010;SDS011;494;48.744;10.106;2022-09-30T06:33:40;33.87;;;6.10;;
1010;SDS011;494;48.744;10.106;2022-09-30T06:36:08;40.83;;;7.13;;
1010;SDS011;494;48.744;10.106;2022-09-30T06:38:38;28.80;;;7.17;;
1010;SDS011;494;48.744;10.106;2022-09-30T06:41:07;29.00;;;7.97;;
1010;SDS011;494;48.744;10.106;2022-09-30T06:43:36;84.97;;;8.77;;
1010;SDS011;494;48.744;10.106;2022-09-30T06:46:20;29.17;;;7.77;;
1010;SDS011;494;48.744;10.106;2022-09-30T06:48:56;53.57;;;9.63;;
1010;SDS011;494;48.744;10.106;2022-09-30T06:51:39;31.53;;;6.50;;
1010;SDS011;494;48.744;10.106;2022-09-30T06:54:09;27.17;;;6.50;;
1010;SDS011;494;48.744;10.106;2022-09-30T06:56:39;78.70;;;7.83;;
1010;SDS011;494;48.744;10.106;2022-09-30T06:59:07;22.23;;;6.47;;
1010;SDS011;494;48.744;10.106;2022-09-30T07:01:36;18.90;;;6.13;;
1010;SDS011;494;48.744;10.106;2022-09-30T07:04:04;15.93;;;5.80;;
1010;SDS011;494;48.744;10.106;2022-09-30T07:06:36;20.90;;;6.50;;
1010;SDS011;494;48.744;10.106;2022-09-30T07:09:05;33.70;;;19.10;;
1010;SDS011;494;48.744;10.106;2022-09-30T07:11:37;27.53;;;7.87;;
1010;SDS011;494;48.744;10.106;2022-09-30T07:14:05;26.50;;;6.83;;
1010;SDS011;494;48.744;10.106;2022-09-30T07:16:35;43.77;;;8.10;;
1010;SDS011;494;48.744;10.106;2022-09-30T07:19:04;29.97;;;8.23;;
1010;SDS011;494;48.744;10.106;2022-09-30T07:21:35;21.30;;;6.77;;
1010;SDS011;494;48.744;10.106;2022-09-30T07:24:04;44.77;;;7.30;;
1010;SDS011;494;48.744;10.106;2022-09-30T07:26:32;33.03;;;7.33;;
1010;SDS011;494;48.744;10.106;2022-09-30T07:29:02;55.57;;;8.50;;
1010;SDS011;494;48.744;10.106;2022-09-30T07:31:32;34.70;;;9.60;;
1010;SDS011;494;48.744;10.106;2022-09-30T07:34:01;25.90;;;9.10;;
1010;SDS011;494;48.744;10.106;2022-09-30T07:36:33;37.50;;;8.97;;
1010;SDS011;494;48.744;10.106;2022-09-30T07:39:05;25.07;;;9.73;;
1010;SDS011;494;48.744;10.106;2022-09-30T07:41:37;51.23;;;10.90;;
1010;SDS011;494;48.744;10.106;2022-09-30T07:44:09;43.53;;;9.13;;
1010;SDS011;494;48.744;10.106;2022-09-30T07:46:40;171.57;;;11.40;;
1010;SDS011;494;48.744;10.106;2022-09-30T07:49:12;89.20;;;9.80;;
1010;SDS011;494;48.744;10.106;2022-09-30T07:51:50;73.37;;;9.27;;
1010;SDS011;494;48.744;10.106;2022-09-30T07:54:21;51.60;;;10.00;;
1010;SDS011;494;48.744;10.106;2022-09-30T07:56:53;48.83;;;11.00;;
1010;SDS011;494;48.744;10.106;2022-09-30T07:59:38;29.27;;;9.90;;
1010;SDS011;494;48.744;10.106;2022-09-30T08:02:10;29.37;;;9.73;;
1010;SDS011;494;48.744;10.106;2022-09-30T08:04:45;25.23;;;9.17;;
1010;SDS011;494;48.744;10.106;2022-09-30T08:07:14;47.73;;;9.67;;
1010;SDS011;494;48.744;10.106;2022-09-30T08:09:44;27.43;;;8.73;;
1010;SDS011;494;48.744;10.106;2022-09-30T08:12:13;28.20;;;9.17;;
1010;SDS011;494;48.744;10.106;2022-09-30T08:14:43;24.83;;;9.17;;
1010;SDS011;494;48.744;10.106;2022-09-30T08:17:11;24.03;;;9.00;;
1010;SDS011;494;48.744;10.106;2022-09-30T08:19:40;23.63;;;8.40;;
1010;SDS011;494;48.744;10.106;2022-09-30T08:22:10;22.67;;;8.27;;
1010;SDS011;494;48.744;10.106;2022-09-30T08:24:39;27.13;;;8.30;;
1010;SDS011;494;48.744;10.106;2022-09-30T08:27:08;23.00;;;8.63;;
1010;SDS011;494;48.744;10.106;2022-09-30T08:29:36;20.83;;;9.30;;
1010;SDS011;494;48.744;10.106;2022-09-30T08:32:25;22.30;;;10.00;;
1010;SDS011;494;48.744;10.106;2022-09-30T08:34:57;22.80;;;9.80;;
1010;SDS011;494;48.744;10.106;2022-09-30T08:37:25;21.33;;;9.07;;
1010;SDS011;494;48.744;10.106;2022-09-30T08:39:54;16.67;;;7.57;;
1010;SDS011;494;48.744;10.106;2022-09-30T08:42:26;16.00;;;7.40;;
1010;SDS011;494;48.744;10.106;2022-09-30T08:45:21;20.73;;;8.67;;
1010;SDS011;494;48.744;10.106;2022-09-30T08:48:06;17.40;;;7.83;;
1010;SDS011;494;48.744;10.106;2022-09-30T08:50:54;17.97;;;8.23;;
1010;SDS011;494;48.744;10.106;2022-09-30T08:53:34;20.53;;;9.47;;
1010;SDS011;494;48.744;10.106;2022-09-30T08:56:07;19.47;;;9.47;;
1010;SDS011;494;48.744;10.106;2022-09-30T08:58:47;18.00;;;8.40;;
1010;SDS011;494;48.744;10.106;2022-09-30T09:01:22;16.40;;;7.87;;
1010;SDS011;494;48.744;10.106;2022-09-30T09:04:00;20.23;;;7.93;;
1010;SDS011;494;48.744;10.106;2022-09-30T09:06:34;19.70;;;8.13;;
1010;SDS011;494;48.744;10.106;2022-09-30T09:09:22;19.83;;;8.20;;
1010;SDS011;494;48.744;10.106;2022-09-30T09:12:06;17.17;;;7.90;;
1010;SDS011;494;48.744;10.106;2022-09-30T09:14:55;19.40;;;9.17;;
1010;SDS011;494;48.744;10.106;2022-09-30T09:17:50;24.67;;;10.17;;
1010;SDS011;494;48.744;10.106;2022-09-30T09:20:54;22.17;;;10.87;;
1010;SDS011;494;48.744;10.106;2022-09-30T09:23:25;23.70;;;12.47;;
1010;SDS011;494;48.744;10.106;2022-09-30T09:25:58;21.23;;;11.57;;
1010;SDS011;494;48.744;10.106;2022-09-30T09:28:29;21.20;;;11.37;;
1010;SDS011;494;48.744;10.106;2022-09-30T09:31:10;21.67;;;10.63;;
1010;SDS011;494;48.744;10.106;2022-09-30T09:33:43;22.67;;;13.23;;
1010;SDS011;494;48.744;10.106;2022-09-30T09:36:17;24.07;;;14.50;;
1010;SDS011;494;48.744;10.106;2022-09-30T09:39:06;25.40;;;15.33;;
1010;SDS011;494;48.744;10.106;2022-09-30T09:41:58;32.03;;;14.90;;
1010;SDS011;494;48.744;10.106;2022-09-30T09:44:44;25.73;;;12.37;;
1010;SDS011;494;48.744;10.106;2022-09-30T09:47:19;23.03;;;10.80;;
1010;SDS011;494;48.744;10.106;2022-09-30T09:49:48;23.20;;;11.60;;
1010;SDS011;494;48.744;10.106;2022-09-30T09:55:41;22.10;;;11.50;;
1010;SDS011;494;48.744;10.106;2022-09-30T09:58:11;30.37;;;12.47;;
1010;SDS011;494;48.744;10.106;2022-09-30T10:00:42;24.73;;;13.30;;
1010;SDS011;494;48.744;10.106;2022-09-30T10:03:37;23.93;;;13.23;;
1010;SDS011;494;48.744;10.106;2022-09-30T10:06:06;29.07;;;11.27;;
1010;SDS011;494;48.744;10.106;2022-09-30T10:08:51;25.33;;;11.50;;
1010;SDS011;494;48.744;10.106;2022-09-30T10:11:23;23.83;;;11.90;;
1010;SDS011;494;48.744;10.106;2022-09-30T10:13:54;28.20;;;11.93;;
1010;SDS011;494;48.744;10.106;2022-09-30T10:16:27;23.13;;;10.70;;
1010;SDS011;494;48.744;10.106;2022-09-30T10:19:00;26.17;;;9.93;;
1010;SDS011;494;48.744;10.106;2022-09-30T10:21:35;27.23;;;10.50;;
1010;SDS011;494;48.744;10.106;2022-09-30T10:24:11;29.10;;;10.87;;
1010;SDS011;494;48.744;10.106;2022-09-30T10:26:47;23.03;;;10.77;;
1010;SDS011;494;48.744;10.106;2022-09-30T10:29:23;28.97;;;10.27;;
1010;SDS011;494;48.744;10.106;2022-09-30T10:31:55;22.90;;;9.77;;
1010;SDS011;494;48.744;10.106;2022-09-30T10:34:26;23.60;;;10.03;;
1010;SDS011;494;48.744;10.106;2022-09-30T10:36:58;24.03;;;10.23;;
1010;SDS011;494;48.744;10.106;2022-09-30T10:39:35;27.57;;;9.57;;
1010;SDS011;494;48.744;10.106;2022-09-30T10:42:09;21.90;;;8.73;;
1010;SDS011;494;48.744;10.106;2022-09-30T10:44:52;16.83;;;9.40;;
1010;SDS011;494;48.744;10.106;2022-09-30T10:47:24;18.20;;;9.90;;
1010;SDS011;494;48.744;10.106;2022-09-30T10:50:01;18.60;;;10.60;;
1010;SDS011;494;48.744;10.106;2022-09-30T10:52:33;19.67;;;9.73;;
1010;SDS011;494;48.744;10.106;2022-09-30T10:55:24;23.03;;;12.03;;
1010;SDS011;494;48.744;10.106;2022-09-30T10:58:00;16.13;;;8.07;;
1010;SDS011;494;48.744;10.106;2022-09-30T11:00:52;18.17;;;11.53;;
1010;SDS011;494;48.744;10.106;2022-09-30T11:03:33;17.77;;;11.47;;
1010;SDS011;494;48.744;10.106;2022-09-30T11:06:08;18.00;;;12.17;;
1010;SDS011;494;48.744;10.106;2022-09-30T11:08:43;16.63;;;8.97;;
1010;SDS011;494;48.744;10.106;2022-09-30T11:11:23;15.60;;;8.17;;
1010;SDS011;494;48.744;10.106;2022-09-30T11:13:55;18.33;;;8.13;;
1010;SDS011;494;48.744;10.106;2022-09-30T11:16:32;18.20;;;9.03;;
1010;SDS011;494;48.744;10.106;2022-09-30T11:19:15;16.73;;;13.00;;
1010;SDS011;494;48.744;10.106;2022-09-30T11:21:55;19.30;;;14.23;;
1010;SDS011;494;48.744;10.106;2022-09-30T11:24:31;19.43;;;12.50;;
1010;SDS011;494;48.744;10.106;2022-09-30T11:27:09;21.93;;;15.53;;
1010;SDS011;494;48.744;10.106;2022-09-30T11:29:51;17.90;;;15.57;;
1010;SDS011;494;48.744;10.106;2022-09-30T11:32:34;17.90;;;14.17;;
1010;SDS011;494;48.744;10.106;2022-09-30T11:35:20;18.67;;;16.23;;
1010;SDS011;494;48.744;10.106;2022-09-30T11:38:20;21.30;;;16.13;;
1010;SDS011;494;48.744;10.106;2022-09-30T11:41:14;17.40;;;15.30;;
1010;SDS011;494;48.744;10.106;2022-09-30T11:43:54;19.30;;;16.10;;
1010;SDS011;494;48.744;10.106;2022-09-30T11:46:39;20.93;;;16.00;;
1010;SDS011;494;48.744;10.106;2022-09-30T11:49:29;19.00;;;16.20;;
1010;SDS011;494;48.744;10.106;2022-09-30T11:52:24;17.70;;;14.87;;
1010;SDS011;494;48.744;10.106;2022-09-30T11:55:06;17.27;;;14.40;;
1010;SDS011;494;48.744;10.106;2022-09-30T11:57:58;16.80;;;9.60;;
1010;SDS011;494;48.744;10.106;2022-09-30T12:00:53;17.47;;;12.20;;
1010;SDS011;494;48.744;10.106;2022-09-30T12:03:32;16.17;;;12.77;;
1010;SDS011;494;48.744;10.106;2022-09-30T12:06:09;14.93;;;11.03;;
1010;SDS011;494;48.744;10.106;2022-09-30T12:08:47;21.80;;;13.10;;
1010;SDS011;494;48.744;10.106;2022-09-30T12:11:26;17.03;;;6.73;;
1010;SDS011;494;48.744;10.106;2022-09-30T12:14:05;13.50;;;6.53;;
1010;SDS011;494;48.744;10.106;2022-09-30T12:16:45;13.33;;;6.27;;
1010;SDS011;494;48.744;10.106;2022-09-30T12:19:18;12.60;;;6.30;;
1010;SDS011;494;48.744;10.106;2022-09-30T12:21:56;16.70;;;6.50;;
1010;SDS011;494;48.744;10.106;2022-09-30T12:24:33;14.27;;;6.40;;
1010;SDS011;494;48.744;10.106;2022-09-30T12:27:10;15.77;;;8.23;;
1010;SDS011;494;48.744;10.106;2022-09-30T12:29:48;18.73;;;8.30;;
1010;SDS011;494;48.744;10.106;2022-09-30T12:36:17;20.70;;;9.90;;
1010;SDS011;494;48.744;10.106;2022-09-30T12:42:27;16.93;;;8.83;;
1010;SDS011;494;48.744;10.106;2022-09-30T12:45:21;15.00;;;7.90;;
1010;SDS011;494;48.744;10.106;2022-09-30T12:48:33;15.80;;;8.33;;
1010;SDS011;494;48.744;10.106;2022-09-30T12:51:07;16.93;;;7.93;;
1010;SDS011;494;48.744;10.106;2022-09-30T12:53:38;17.57;;;8.90;;
1010;SDS011;494;48.744;10.106;2022-09-30T12:56:07;15.33;;;8.37;;
1010;SDS011;494;48.744;10.106;2022-09-30T12:58:41;15.50;;;7.90;;
1010;SDS011;494;48.744;10.106;2022-09-30T13:01:15;15.83;;;8.60;;
1010;SDS011;494;48.744;10.106;2022-09-30T13:04:08;14.80;;;8.13;;
1010;SDS011;494;48.744;10.106;2022-09-30T13:09:54;15.43;;;8.30;;
1010;SDS011;494;48.744;10.106;2022-09-30T13:12:39;14.70;;;7.73;;
1010;SDS011;494;48.744;10.106;2022-09-30T13:15:26;15.17;;;7.73;;
1010;SDS011;494;48.744;10.106;2022-09-30T13:21:28;16.70;;;9.20;;
1010;SDS011;494;48.744;10.106;2022-09-30T13:23:57;17.47;;;8.07;;
1010;SDS011;494;48.744;10.106;2022-09-30T13:26:34;15.33;;;8.33;;
1010;SDS011;494;48.744;10.106;2022-09-30T13:32:01;15.00;;;7.00;;
1010;SDS011;494;48.744;10.106;2022-09-30T13:34:46;14.50;;;7.20;;
1010;SDS011;494;48.744;10.106;2022-09-30T13:40:13;13.90;;;6.27;;
1010;SDS011;494;48.744;10.106;2022-09-30T13:43:13;14.67;;;7.23;;
1010;SDS011;494;48.744;10.106;2022-09-30T13:45:48;14.30;;;7.30;;
1010;SDS011;494;48.744;10.106;2022-09-30T13:48:24;15.53;;;7.93;;
1010;SDS011;494;48.744;10.106;2022-09-30T13:51:00;13.80;;;6.90;;
1010;SDS011;494;48.744;10.106;2022-09-30T13:53:40;15.87;;;8.00;;
1010;SDS011;494;48.744;10.106;2022-09-30T13:56:17;16.33;;;8.20;;
1010;SDS011;494;48.744;10.106;2022-09-30T13:59:11;16.83;;;7.97;;
1010;SDS011;494;48.744;10.106;2022-09-30T14:02:05;14.57;;;7.30;;
1010;SDS011;494;48.744;10.106;2022-09-30T14:05:11;15.37;;;6.60;;
1010;SDS011;494;48.744;10.106;2022-09-30T14:08:14;17.13;;;7.20;;
1010;SDS011;494;48.744;10.106;2022-09-30T14:11:18;14.33;;;6.70;;
1010;SDS011;494;48.744;10.106;2022-09-30T14:14:22;16.13;;;7.10;;
1010;SDS011;494;48.744;10.106;2022-09-30T14:17:32;14.37;;;7.37;;
1010;SDS011;494;48.744;10.106;2022-09-30T14:20:31;15.90;;;7.67;;
1010;SDS011;494;48.744;10.106;2022-09-30T14:23:25;14.67;;;6.73;;
1010;SDS011;494;48.744;10.106;2022-09-30T14:25:56;16.10;;;8.00;;
1010;SDS011;494;48.744;10.106;2022-09-30T14:28:55;14.67;;;7.10;;
1010;SDS011;494;48.744;10.106;2022-09-30T14:31:32;14.70;;;6.80;;
1010;SDS011;494;48.744;10.106;2022-09-30T14:34:09;14.33;;;7.20;;
1010;SDS011;494;48.744;10.106;2022-09-30T14:36:41;13.80;;;6.67;;
1010;SDS011;494;48.744;10.106;2022-09-30T14:39:14;14.87;;;7.50;;
1010;SDS011;494;48.744;10.106;2022-09-30T14:41:48;15.17;;;6.90;;
1010;SDS011;494;48.744;10.106;2022-09-30T14:44:21;17.87;;;7.13;;
1010;SDS011;494;48.744;10.106;2022-09-30T14:46:53;15.50;;;7.70;;
1010;SDS011;494;48.744;10.106;2022-09-30T14:49:27;15.53;;;7.20;;
1010;SDS011;494;48.744;10.106;2022-09-30T14:52:00;15.40;;;6.87;;
1010;SDS011;494;48.744;10.106;2022-09-30T14:54:32;14.03;;;6.13;;
1010;SDS011;494;48.744;10.106;2022-09-30T14:57:01;14.00;;;5.60;;
1010;SDS011;494;48.744;10.106;2022-09-30T14:59:43;12.07;;;4.87;;
1010;SDS011;494;48.744;10.106;2022-09-30T15:02:12;12.40;;;5.00;;
1010;SDS011;494;48.744;10.106;2022-09-30T15:04:46;13.23;;;5.47;;
1010;SDS011;494;48.744;10.106;2022-09-30T15:07:23;12.93;;;5.20;;
1010;SDS011;494;48.744;10.106;2022-09-30T15:09:53;13.23;;;5.17;;
1010;SDS011;494;48.744;10.106;2022-09-30T15:12:29;12.83;;;4.77;;
1010;SDS011;494;48.744;10.106;2022-09-30T15:17:59;13.27;;;4.97;;
1010;SDS011;494;48.744;10.106;2022-09-30T15:20:58;13.07;;;4.90;;
1010;SDS011;494;48.744;10.106;2022-09-30T15:23:35;12.77;;;5.20;;
1010;SDS011;494;48.744;10.106;2022-09-30T15:26:10;12.70;;;5.10;;
1010;SDS011;494;48.744;10.106;2022-09-30T15:28:41;13.17;;;5.53;;
1010;SDS011;494;48.744;10.106;2022-09-30T15:31:14;14.40;;;4.50;;
1010;SDS011;494;48.744;10.106;2022-09-30T15:33:59;15.17;;;6.53;;
1010;SDS011;494;48.744;10.106;2022-09-30T15:36:38;18.57;;;8.10;;
1010;SDS011;494;48.744;10.106;2022-09-30T15:39:16;18.70;;;8.17;;
1010;SDS011;494;48.744;10.106;2022-09-30T15:41:51;21.70;;;7.47;;
1010;SDS011;494;48.744;10.106;2022-09-30T15:44:35;18.60;;;6.50;;
1010;SDS011;494;48.744;10.106;2022-09-30T15:47:05;13.40;;;5.63;;
1010;SDS011;494;48.744;10.106;2022-09-30T15:49:45;13.00;;;5.20;;
1010;SDS011;494;48.744;10.106;2022-09-30T15:52:19;13.40;;;4.80;;
1010;SDS011;494;48.744;10.106;2022-09-30T15:54:56;11.87;;;4.67;;
1010;SDS011;494;48.744;10.106;2022-09-30T15:57:45;14.17;;;5.77;;
1010;SDS011;494;48.744;10.106;2022-09-30T16:00:29;16.07;;;6.20;;
1010;SDS011;494;48.744;10.106;2022-09-30T16:03:18;20.43;;;6.07;;
1010;SDS011;494;48.744;10.106;2022-09-30T16:06:03;14.20;;;5.47;;
1010;SDS011;494;48.744;10.106;2022-09-30T16:08:40;18.73;;;6.60;;
1010;SDS011;494;48.744;10.106;2022-09-30T16:11:17;14.87;;;5.80;;
1010;SDS011;494;48.744;10.106;2022-09-30T16:13:53;18.13;;;8.40;;
1010;SDS011;494;48.744;10.106;2022-09-30T16:16:24;16.20;;;7.03;;
1010;SDS011;494;48.744;10.106;2022-09-30T16:18:56;14.13;;;6.50;;
1010;SDS011;494;48.744;10.106;2022-09-30T16:21:35;17.37;;;14.10;;
1010;SDS011;494;48.744;10.106;2022-09-30T16:27:19;16.27;;;12.87;;
1010;SDS011;494;48.744;10.106;2022-09-30T16:29:57;11.50;;;6.30;;
1010;SDS011;494;48.744;10.106;2022-09-30T16:32:28;11.50;;;4.77;;